createdAt,value
2023-02-14T00:01:10.361Z,2.90
2023-02-14T00:03:37.032Z,2.90
2023-02-14T00:06:11.768Z,2.90
2023-02-14T00:08:40.726Z,2.90
2023-02-14T00:11:08.860Z,2.80
2023-02-14T00:13:35.881Z,2.90
2023-02-14T00:16:03.451Z,2.80
2023-02-14T00:18:48.688Z,2.90
2023-02-14T00:21:18.036Z,2.90
2023-02-14T00:23:44.575Z,2.90
2023-02-14T00:26:15.422Z,2.90
2023-02-14T00:28:42.294Z,2.90
2023-02-14T00:31:09.099Z,2.90
2023-02-14T00:33:35.845Z,2.90
2023-02-14T00:36:04.159Z,2.90
2023-02-14T00:38:30.832Z,2.90
2023-02-14T00:40:57.735Z,2.90
2023-02-14T00:43:24.588Z,2.90
2023-02-14T00:45:51.562Z,2.80
2023-02-14T00:48:18.560Z,2.80
2023-02-14T00:50:48.384Z,2.80
2023-02-14T00:53:15.037Z,2.60
2023-02-14T00:55:44.180Z,2.60
2023-02-14T00:58:10.800Z,2.70
2023-02-14T01:00:37.366Z,2.60
2023-02-14T01:03:04.021Z,2.60
2023-02-14T01:05:30.551Z,2.60
2023-02-14T01:07:57.067Z,2.60
2023-02-14T01:10:23.618Z,2.50
2023-02-14T01:12:50.235Z,2.50
2023-02-14T01:15:16.847Z,2.40
2023-02-14T01:17:43.509Z,2.30
2023-02-14T01:20:10.485Z,2.30
2023-02-14T01:22:37.992Z,2.20
2023-02-14T01:25:05.250Z,2.10
2023-02-14T01:30:17.108Z,2.20
2023-02-14T01:38:12.257Z,2.20
2023-02-14T01:40:44.974Z,2.20
2023-02-14T01:43:16.081Z,2.30
2023-02-14T01:45:42.756Z,2.10
2023-02-14T01:48:10.626Z,2.20
2023-02-14T01:50:41.317Z,2.30
2023-02-14T01:53:23.704Z,2.20
2023-02-14T01:56:01.552Z,2.30
2023-02-14T01:58:34.784Z,2.20
2023-02-14T02:01:20.295Z,2.20
2023-02-14T02:03:52.881Z,2.30
2023-02-14T02:06:25.944Z,2.30
2023-02-14T02:09:17.526Z,2.30
2023-02-14T02:11:44.603Z,2.30
2023-02-14T02:14:21.800Z,2.20
2023-02-14T02:17:17.325Z,2.20
2023-02-14T02:20:02.461Z,2.20
2023-02-14T02:22:38.006Z,2.00
2023-02-14T02:25:37.778Z,1.90
2023-02-14T02:28:24.410Z,1.90
2023-02-14T02:31:27.576Z,2.00
2023-02-14T02:34:13.059Z,1.90
2023-02-14T02:37:00.265Z,1.80
2023-02-14T02:39:42.437Z,1.70
2023-02-14T02:42:33.999Z,1.70
2023-02-14T02:45:09.279Z,1.60
2023-02-14T02:48:04.324Z,1.60
2023-02-14T02:51:09.840Z,1.60
2023-02-14T02:53:54.227Z,1.60
2023-02-14T02:56:51.060Z,1.50
2023-02-14T02:59:31.136Z,1.40
2023-02-14T03:02:06.435Z,1.40
2023-02-14T03:05:08.062Z,1.40
2023-02-14T03:07:37.475Z,1.30
2023-02-14T03:10:14.435Z,1.40
2023-02-14T03:13:18.055Z,1.30
2023-02-14T03:15:59.257Z,1.40
2023-02-14T03:18:59.686Z,1.40
2023-02-14T03:21:44.224Z,1.30
2023-02-14T03:24:22.377Z,1.30
2023-02-14T03:26:50.335Z,1.30
2023-02-14T03:29:31.171Z,1.30
2023-02-14T03:32:07.277Z,1.40
2023-02-14T03:34:52.933Z,1.30
2023-02-14T03:37:30.599Z,1.20
2023-02-14T03:40:11.425Z,1.20
2023-02-14T03:42:52.815Z,1.20
2023-02-14T03:45:45.811Z,1.20
2023-02-14T03:48:16.527Z,1.20
2023-02-14T03:50:46.251Z,1.20
2023-02-14T03:53:16.612Z,1.20
2023-02-14T03:56:18.883Z,1.10
2023-02-14T03:58:50.555Z,1.10
2023-02-14T04:01:23.322Z,1.20
2023-02-14T04:03:52.459Z,1.20
2023-02-14T04:06:20.216Z,1.20
2023-02-14T04:08:46.816Z,1.30
2023-02-14T04:11:13.427Z,1.30
2023-02-14T04:13:40.293Z,1.30
2023-02-14T04:16:07.648Z,1.40
2023-02-14T04:18:52.925Z,1.40
2023-02-14T04:21:20.202Z,1.40
2023-02-14T04:23:46.769Z,1.60
2023-02-14T04:26:13.432Z,1.60
2023-02-14T04:28:40.268Z,1.60
2023-02-14T04:31:07.251Z,1.60
2023-02-14T04:33:34.531Z,1.70
2023-02-14T04:36:01.191Z,1.60
2023-02-14T04:38:28.088Z,1.60
2023-02-14T04:40:54.620Z,1.70
2023-02-14T04:43:21.173Z,1.80
2023-02-14T04:45:47.785Z,1.80
2023-02-14T04:48:14.351Z,1.90
2023-02-14T04:50:40.937Z,1.90
2023-02-14T04:53:07.539Z,1.90
2023-02-14T04:55:34.827Z,1.90
2023-02-14T04:58:01.365Z,1.90
2023-02-14T05:00:27.979Z,1.90
2023-02-14T05:02:54.581Z,1.90
2023-02-14T05:05:21.176Z,1.90
2023-02-14T05:07:47.802Z,2.00
2023-02-14T05:10:14.908Z,2.10
2023-02-14T05:12:41.563Z,2.10
2023-02-14T05:15:08.759Z,2.10
2023-02-14T05:17:36.081Z,2.10
2023-02-14T05:20:03.918Z,2.20
2023-02-14T05:22:30.723Z,2.20
2023-02-14T05:24:57.507Z,2.20
2023-02-14T05:27:24.168Z,2.20
2023-02-14T05:29:50.750Z,2.30
2023-02-14T05:32:17.405Z,2.30
2023-02-14T05:34:44.009Z,2.30
2023-02-14T05:37:10.648Z,2.40
2023-02-14T05:39:37.254Z,2.30
2023-02-14T05:42:03.860Z,2.40
2023-02-14T05:44:30.530Z,2.40
2023-02-14T05:46:57.152Z,2.50
2023-02-14T05:49:23.707Z,2.50
2023-02-14T05:51:50.254Z,2.40
2023-02-14T05:54:16.752Z,2.60
2023-02-14T05:56:43.275Z,2.70
2023-02-14T05:59:09.852Z,2.70
2023-02-14T06:01:36.477Z,2.70
2023-02-14T06:04:03.222Z,2.60
2023-02-14T06:06:29.995Z,2.60
2023-02-14T06:08:56.499Z,2.70
2023-02-14T06:11:23.187Z,2.60
2023-02-14T06:13:49.784Z,2.60
2023-02-14T06:16:16.451Z,2.70
2023-02-14T06:18:43.060Z,2.70
2023-02-14T06:21:09.641Z,2.70
2023-02-14T06:23:36.179Z,2.60
2023-02-14T06:26:03.816Z,2.70
2023-02-14T06:28:30.470Z,2.70
2023-02-14T06:30:57.326Z,2.70
2023-02-14T06:33:23.935Z,2.70
2023-02-14T06:35:50.589Z,2.70
2023-02-14T06:38:17.170Z,2.70
2023-02-14T06:40:43.741Z,2.80
2023-02-14T06:43:10.322Z,2.70
2023-02-14T06:45:36.952Z,2.80
2023-02-14T06:48:03.806Z,2.80
2023-02-14T06:50:30.441Z,2.80
2023-02-14T06:52:57.058Z,2.80
2023-02-14T06:55:23.692Z,2.80
2023-02-14T06:57:50.276Z,2.80
2023-02-14T07:00:17.296Z,2.80
2023-02-14T07:02:44.033Z,3.00
2023-02-14T07:05:10.620Z,3.00
2023-02-14T07:07:37.221Z,2.90
2023-02-14T07:10:04.574Z,2.80
2023-02-14T07:12:31.183Z,2.80
2023-02-14T07:14:57.853Z,2.90
2023-02-14T07:17:24.513Z,2.90
2023-02-14T07:19:51.099Z,2.90
2023-02-14T07:22:17.769Z,2.90
2023-02-14T07:24:44.454Z,3.00
2023-02-14T07:27:11.076Z,2.90
2023-02-14T07:29:37.718Z,2.90
2023-02-14T07:32:04.617Z,2.90
2023-02-14T07:34:31.403Z,2.90
2023-02-14T07:36:59.092Z,2.90
2023-02-14T07:39:25.722Z,2.90
2023-02-14T07:41:52.459Z,3.00
2023-02-14T07:44:19.288Z,3.00
2023-02-14T07:46:45.832Z,2.90
2023-02-14T07:49:12.416Z,2.90
2023-02-14T07:51:39.289Z,2.90
2023-02-14T07:54:05.930Z,2.90
2023-02-14T07:56:32.526Z,3.00
2023-02-14T07:58:59.778Z,3.00
2023-02-14T08:01:26.418Z,3.00
2023-02-14T08:03:53.139Z,2.90
2023-02-14T08:06:20.277Z,3.00
2023-02-14T08:08:47.382Z,3.00
2023-02-14T08:11:37.615Z,3.20
2023-02-14T08:14:05.046Z,3.30
2023-02-14T08:16:34.162Z,3.40
2023-02-14T08:19:01.760Z,3.40
2023-02-14T08:21:28.477Z,3.40
2023-02-14T08:23:55.075Z,3.40
2023-02-14T08:26:21.828Z,3.40
2023-02-14T08:28:48.515Z,3.30
2023-02-14T08:31:35.163Z,3.50
2023-02-14T08:34:02.667Z,3.40
2023-02-14T08:36:29.216Z,3.50
2023-02-14T08:38:58.499Z,3.50
2023-02-14T08:41:25.109Z,3.50
2023-02-14T08:43:52.208Z,3.60
2023-02-14T08:46:18.896Z,3.60
2023-02-14T08:48:45.599Z,3.50
2023-02-14T08:51:14.244Z,3.50
2023-02-14T08:53:41.676Z,3.50
2023-02-14T08:56:11.042Z,3.40
2023-02-14T08:58:40.919Z,3.40
2023-02-14T09:01:13.449Z,3.50
2023-02-14T09:03:40.205Z,3.50
2023-02-14T09:06:09.940Z,3.50
2023-02-14T09:08:38.314Z,3.60
2023-02-14T09:11:18.311Z,3.60
2023-02-14T09:13:45.992Z,3.60
2023-02-14T09:16:14.144Z,3.60
2023-02-14T09:18:40.811Z,3.50
2023-02-14T09:21:10.290Z,3.50
2023-02-14T09:23:37.671Z,3.60
2023-02-14T09:26:07.345Z,3.50
2023-02-14T09:28:34.801Z,3.50
2023-02-14T09:31:11.986Z,3.60
2023-02-14T09:33:39.050Z,3.60
2023-02-14T09:36:24.449Z,3.60
2023-02-14T09:38:50.975Z,3.70
2023-02-14T09:41:56.740Z,3.70
2023-02-14T09:44:35.459Z,3.60
2023-02-14T09:47:35.480Z,3.70
2023-02-14T09:50:06.246Z,3.60
2023-02-14T09:52:33.280Z,3.70
2023-02-14T09:55:02.563Z,3.80
2023-02-14T09:58:00.040Z,3.90
2023-02-14T10:00:45.168Z,3.90
2023-02-14T10:03:33.881Z,3.90
2023-02-14T10:06:43.716Z,3.90
2023-02-14T10:09:32.627Z,3.80
2023-02-14T10:12:00.976Z,3.90
2023-02-14T10:14:31.669Z,3.90
2023-02-14T10:17:15.519Z,3.90
2023-02-14T10:19:49.895Z,3.90
2023-02-14T10:22:19.731Z,3.90
2023-02-14T10:24:52.404Z,4.10
2023-02-14T10:27:33.936Z,4.00
2023-02-14T10:30:02.490Z,3.90
2023-02-14T10:32:46.418Z,4.00
2023-02-14T10:35:39.135Z,4.10
2023-02-14T10:38:17.803Z,4.00
2023-02-14T10:40:55.377Z,4.10
2023-02-14T10:43:27.959Z,4.10
2023-02-14T10:45:57.847Z,4.10
2023-02-14T10:48:41.429Z,4.20
2023-02-14T10:51:21.526Z,4.20
2023-02-14T10:54:08.845Z,4.10
2023-02-14T10:56:43.306Z,4.00
2023-02-14T10:59:35.493Z,4.00
2023-02-14T11:02:02.497Z,4.00
2023-02-14T11:04:31.472Z,4.10
2023-02-14T11:06:58.468Z,4.20
2023-02-14T11:09:25.023Z,4.30
2023-02-14T11:11:54.395Z,4.40
2023-02-14T11:14:29.986Z,4.40
2023-02-14T11:16:58.709Z,4.40
2023-02-14T11:19:37.434Z,4.50
2023-02-14T11:22:04.660Z,4.60
2023-02-14T11:24:37.095Z,4.60
2023-02-14T11:27:12.531Z,4.70
2023-02-14T11:29:39.120Z,4.60
2023-02-14T11:32:13.553Z,4.60
2023-02-14T11:34:50.959Z,4.60
2023-02-14T11:37:23.388Z,4.60
2023-02-14T11:39:51.278Z,4.60
2023-02-14T11:42:43.617Z,4.70
2023-02-14T11:45:31.413Z,4.80
2023-02-14T11:48:16.150Z,4.80
2023-02-14T11:51:05.396Z,4.80
2023-02-14T11:53:48.678Z,4.90
2023-02-14T11:56:17.518Z,4.90
2023-02-14T11:58:50.252Z,4.80
2023-02-14T12:01:30.176Z,4.70
2023-02-14T12:04:02.916Z,4.80
2023-02-14T12:06:32.054Z,4.70
2023-02-14T12:09:11.775Z,4.80
2023-02-14T12:11:38.714Z,4.90
2023-02-14T12:14:05.816Z,4.90
2023-02-14T12:16:42.650Z,5.00
2023-02-14T12:19:17.104Z,5.10
2023-02-14T12:21:49.563Z,5.10
2023-02-14T12:24:36.801Z,5.10
2023-02-14T12:27:25.182Z,5.10
2023-02-14T12:30:14.199Z,5.10
2023-02-14T12:32:53.676Z,5.10
2023-02-14T12:35:47.497Z,5.20
2023-02-14T12:38:41.950Z,5.20
2023-02-14T12:41:27.117Z,5.30
2023-02-14T12:43:56.458Z,5.30
2023-02-14T12:46:58.007Z,5.30
2023-02-14T12:50:00.852Z,5.30
2023-02-14T12:52:39.056Z,5.40
2023-02-14T12:55:18.495Z,5.80
2023-02-14T12:58:15.651Z,5.70
2023-02-14T13:01:24.737Z,5.70
2023-02-14T13:04:41.303Z,5.60
2023-02-14T13:07:26.353Z,5.60
2023-02-14T13:10:22.272Z,5.80
2023-02-14T13:12:53.855Z,5.80
2023-02-14T13:15:58.306Z,5.80
2023-02-14T13:18:50.871Z,5.80
2023-02-14T13:21:23.384Z,6.00
2023-02-14T13:23:54.986Z,5.90
2023-02-14T13:26:31.618Z,6.00
2023-02-14T13:29:06.280Z,6.30
2023-02-14T13:31:33.584Z,6.40
2023-02-14T13:34:24.874Z,6.70
2023-02-14T13:36:52.300Z,7.10
2023-02-14T13:39:38.279Z,7.20
2023-02-14T13:42:06.447Z,7.30
2023-02-14T13:44:43.575Z,7.70
2023-02-14T13:47:36.241Z,8.20
2023-02-14T13:50:04.121Z,8.60
2023-02-14T13:52:48.625Z,8.60
2023-02-14T13:55:22.439Z,8.50
2023-02-14T13:58:06.256Z,8.80
2023-02-14T14:00:39.220Z,8.60
2023-02-14T14:03:06.950Z,8.70
2023-02-14T14:05:33.472Z,8.70
2023-02-14T14:08:22.261Z,8.80
2023-02-14T14:10:52.899Z,8.90
2023-02-14T14:13:41.452Z,8.70
2023-02-14T14:16:28.091Z,8.90
2023-02-14T14:19:04.723Z,8.80
2023-02-14T14:21:39.330Z,8.90
2023-02-14T14:24:18.075Z,8.60
2023-02-14T14:26:49.104Z,8.80
2023-02-14T14:29:25.519Z,8.70
2023-02-14T14:31:55.696Z,8.50
2023-02-14T14:34:25.698Z,8.10
2023-02-14T14:37:16.723Z,7.80
2023-02-14T14:39:53.753Z,7.50
2023-02-14T14:42:21.707Z,7.60
2023-02-14T14:44:55.402Z,7.60
2023-02-14T14:47:44.334Z,7.80
2023-02-14T14:50:22.873Z,7.70
2023-02-14T14:52:53.301Z,7.50
2023-02-14T14:55:31.571Z,7.60
2023-02-14T14:58:03.726Z,7.60
2023-02-14T15:00:36.050Z,7.50
2023-02-14T15:03:09.987Z,7.60
2023-02-14T15:05:42.755Z,7.50
2023-02-14T15:08:23.093Z,7.60
2023-02-14T15:10:56.960Z,7.80
2023-02-14T15:13:50.495Z,7.90
2023-02-14T15:16:21.922Z,7.80
2023-02-14T15:18:50.237Z,7.80
2023-02-14T15:21:17.290Z,7.70
2023-02-14T15:23:45.205Z,7.60
2023-02-14T15:26:24.952Z,7.60
2023-02-14T15:29:03.973Z,7.50
2023-02-14T15:31:36.963Z,7.60
2023-02-14T15:34:04.928Z,7.60
2023-02-14T15:36:33.621Z,7.60
2023-02-14T15:39:04.154Z,7.60
2023-02-14T15:41:30.822Z,7.50
2023-02-14T15:43:58.233Z,7.60
2023-02-14T15:46:26.458Z,7.40
2023-02-14T15:48:55.339Z,7.30
2023-02-14T15:51:27.186Z,7.30
2023-02-14T15:53:55.554Z,7.30
2023-02-14T15:56:26.427Z,7.10
2023-02-14T15:59:06.966Z,6.80
2023-02-14T16:01:35.381Z,6.60
2023-02-14T16:04:05.463Z,6.50
2023-02-14T16:06:35.836Z,6.30
2023-02-14T16:09:04.891Z,6.20
2023-02-14T16:11:37.352Z,6.10
2023-02-14T16:14:25.469Z,6.00
2023-02-14T16:17:06.769Z,5.80
2023-02-14T16:19:45.231Z,5.80
2023-02-14T16:22:24.580Z,5.60
2023-02-14T16:24:51.206Z,5.60
2023-02-14T16:27:17.805Z,5.60
2023-02-14T16:29:44.368Z,5.60
2023-02-14T16:32:17.784Z,5.50
2023-02-14T16:34:47.047Z,5.50
2023-02-14T16:37:22.883Z,5.50
2023-02-14T16:39:52.029Z,5.50
2023-02-14T16:42:18.913Z,5.50
2023-02-14T16:44:46.547Z,5.40
2023-02-14T16:47:15.506Z,5.30
2023-02-14T16:49:42.322Z,5.30
2023-02-14T16:52:18.303Z,5.30
2023-02-14T16:54:46.017Z,5.20
2023-02-14T16:57:19.996Z,5.00
2023-02-14T16:59:46.917Z,4.90
2023-02-14T17:02:13.886Z,4.80
2023-02-14T17:04:40.410Z,4.80
2023-02-14T17:07:07.812Z,4.80
2023-02-14T17:09:39.468Z,4.80
2023-02-14T17:12:14.629Z,4.70
2023-02-14T17:14:42.317Z,4.70
2023-02-14T17:17:10.679Z,4.70
2023-02-14T17:19:37.294Z,4.70
2023-02-14T17:22:04.574Z,4.60
2023-02-14T17:24:31.981Z,4.50
2023-02-14T17:26:58.551Z,4.40
2023-02-14T17:29:25.119Z,4.40
2023-02-14T17:31:51.772Z,4.40
2023-02-14T17:34:18.397Z,4.30
2023-02-14T17:36:44.993Z,4.30
2023-02-14T17:39:11.677Z,4.30
2023-02-14T17:41:38.250Z,4.30
2023-02-14T17:44:06.964Z,4.20
2023-02-14T17:46:33.556Z,4.00
2023-02-14T17:49:02.549Z,4.00
2023-02-14T17:51:29.601Z,4.00
2023-02-14T17:53:58.881Z,4.00
2023-02-14T17:56:26.331Z,3.90
2023-02-14T17:58:55.056Z,3.80
2023-02-14T18:01:24.342Z,3.80
2023-02-14T18:03:52.036Z,3.90
2023-02-14T18:06:21.909Z,3.80
2023-02-14T18:08:51.703Z,3.70
2023-02-14T18:11:20.376Z,3.70
2023-02-14T18:13:47.371Z,3.60
2023-02-14T18:16:16.621Z,3.60
2023-02-14T18:18:43.206Z,3.50
2023-02-14T18:21:12.295Z,3.50
2023-02-14T18:23:39.609Z,3.50
2023-02-14T18:26:10.367Z,3.40
2023-02-14T18:28:36.943Z,3.40
2023-02-14T18:31:14.729Z,3.40
2023-02-14T18:33:41.620Z,3.40
2023-02-14T18:36:13.917Z,3.30
2023-02-14T18:38:42.805Z,3.40
2023-02-14T18:41:11.808Z,3.30
2023-02-14T18:43:40.884Z,3.30
2023-02-14T18:46:16.681Z,3.30
2023-02-14T18:48:44.299Z,3.40
2023-02-14T18:51:19.913Z,3.30
2023-02-14T18:53:47.367Z,3.30
2023-02-14T18:56:19.654Z,3.40
2023-02-14T18:58:50.304Z,3.40
2023-02-14T19:01:20.646Z,3.40
2023-02-14T19:03:49.595Z,3.40
2023-02-14T19:06:17.802Z,3.30
2023-02-14T19:08:44.905Z,3.30
2023-02-14T19:11:14.128Z,3.50
2023-02-14T19:13:45.270Z,3.50
2023-02-14T19:16:14.751Z,3.40
2023-02-14T19:18:41.498Z,3.40
2023-02-14T19:21:14.119Z,3.40
2023-02-14T19:23:41.320Z,3.40
2023-02-14T19:26:17.160Z,3.50
2023-02-14T19:28:44.656Z,3.40
2023-02-14T19:31:12.059Z,3.40
2023-02-14T19:33:41.120Z,3.50
2023-02-14T19:36:12.543Z,3.50
2023-02-14T19:38:41.185Z,3.50
2023-02-14T19:41:16.573Z,3.50
2023-02-14T19:43:45.732Z,3.50
2023-02-14T19:46:13.656Z,3.50
2023-02-14T19:48:40.579Z,3.40
2023-02-14T19:51:07.441Z,3.40
2023-02-14T19:53:34.819Z,3.50
2023-02-14T19:56:01.678Z,3.40
2023-02-14T19:58:28.387Z,3.40
2023-02-14T20:00:59.834Z,3.30
2023-02-14T20:03:26.797Z,3.30
2023-02-14T20:05:53.466Z,3.20
2023-02-14T20:08:20.174Z,3.20
2023-02-14T20:10:46.723Z,3.20
2023-02-14T20:13:13.575Z,3.20
2023-02-14T20:15:40.585Z,3.20
2023-02-14T20:18:07.507Z,3.20
2023-02-14T20:20:54.132Z,3.20
2023-02-14T20:23:20.760Z,3.20
2023-02-14T20:25:47.418Z,3.20
2023-02-14T20:28:14.060Z,3.20
2023-02-14T20:30:40.625Z,3.20
2023-02-14T20:33:07.217Z,3.30
2023-02-14T20:35:37.955Z,3.20
2023-02-14T20:38:07.444Z,3.20
2023-02-14T20:40:38.970Z,3.30
2023-02-14T20:43:05.653Z,3.20
2023-02-14T20:45:32.898Z,3.20
2023-02-14T20:48:03.213Z,3.20
2023-02-14T20:50:31.159Z,3.10
2023-02-14T20:52:58.217Z,3.20
2023-02-14T20:55:26.968Z,3.10
2023-02-14T20:57:53.901Z,3.10
2023-02-14T21:00:20.905Z,3.10
2023-02-14T21:02:47.406Z,3.10
2023-02-14T21:05:18.320Z,3.20
2023-02-14T21:07:44.962Z,3.20
2023-02-14T21:10:11.553Z,3.20
2023-02-14T21:12:38.588Z,3.20
2023-02-14T21:15:06.834Z,3.10
2023-02-14T21:17:33.786Z,3.10
2023-02-14T21:20:00.307Z,3.10
2023-02-14T21:22:26.894Z,3.10
2023-02-14T21:24:53.440Z,3.10
2023-02-14T21:27:20.048Z,3.10
2023-02-14T21:29:46.631Z,3.10
2023-02-14T21:32:13.363Z,3.10
2023-02-14T21:34:40.101Z,3.20
2023-02-14T21:37:06.717Z,3.20
2023-02-14T21:39:35.665Z,3.10
2023-02-14T21:42:02.290Z,3.10
2023-02-14T21:44:49.094Z,3.20
2023-02-14T21:47:15.625Z,3.20
2023-02-14T21:50:00.950Z,3.20
2023-02-14T21:52:30.109Z,3.20
2023-02-14T21:54:56.898Z,3.10
2023-02-14T21:57:23.684Z,3.10
2023-02-14T21:59:50.265Z,3.20
2023-02-14T22:02:16.993Z,3.20
2023-02-14T22:04:45.433Z,3.10
2023-02-14T22:07:12.403Z,3.10
2023-02-14T22:09:39.005Z,3.10
2023-02-14T22:12:05.757Z,3.10
2023-02-14T22:14:32.286Z,3.10
2023-02-14T22:16:58.790Z,3.10
2023-02-14T22:19:25.392Z,3.10
2023-02-14T22:21:51.895Z,3.10
2023-02-14T22:24:18.398Z,3.00
2023-02-14T22:26:45.001Z,3.10
2023-02-14T22:29:13.757Z,3.10
2023-02-14T22:31:42.973Z,3.10
2023-02-14T22:34:12.345Z,3.10
2023-02-14T22:36:39.073Z,3.10
2023-02-14T22:39:06.364Z,3.00
2023-02-14T22:41:37.533Z,3.00
2023-02-14T22:44:04.555Z,3.00
2023-02-14T22:46:31.154Z,3.00
2023-02-14T22:48:58.144Z,3.00
2023-02-14T22:51:30.476Z,3.00
2023-02-14T22:53:59.393Z,2.90
2023-02-14T22:56:31.335Z,2.90
2023-02-14T22:59:00.640Z,3.00
2023-02-14T23:01:27.973Z,3.00
2023-02-14T23:03:56.456Z,3.00
2023-02-14T23:06:28.091Z,3.00
2023-02-14T23:08:55.745Z,3.00
2023-02-14T23:11:28.295Z,3.00
2023-02-14T23:14:14.324Z,3.00
2023-02-14T23:16:59.707Z,3.00
2023-02-14T23:19:49.707Z,3.00
2023-02-14T23:22:20.287Z,3.00
2023-02-14T23:24:53.110Z,3.00
2023-02-14T23:27:22.349Z,3.10
2023-02-14T23:29:49.344Z,3.00
2023-02-14T23:32:16.226Z,3.10
2023-02-14T23:34:44.486Z,3.10
2023-02-14T23:37:12.137Z,3.00
2023-02-14T23:39:38.700Z,3.10
2023-02-14T23:42:16.590Z,3.00
2023-02-14T23:44:44.276Z,3.00
2023-02-14T23:47:11.715Z,3.10
2023-02-14T23:49:39.919Z,3.10
2023-02-14T23:52:12.275Z,3.00
2023-02-14T23:54:39.454Z,3.00
2023-02-14T23:57:07.266Z,3.10
2023-02-14T23:59:33.906Z,3.00
